Aérodrome :
LOGIN :

S'inscrire | Disclaimer

   EN    FR    IT 

 










Légende :    VFR   VFR Marginal   IFR   IFR Intensif   IFR Très Intensif
Visi : 
Plafond : 
>= 8 km
>= 3000ft
5 à 8 km
1000 à 3000 ft
1500m à 5 km
500 à 1000 ft
800 à 1500m
200 à 500 ft
< 800m
< 200 ft
Symboles :   Orages  Brouillard  Fortes neiges  Fortes précipitations  Vent > 20 kt
SIGMETs :   Divers  Orages  Givrage  Turbulence  Onde Orograph.  Cendres Volcan.






- Altitude de l'aérodrome : 197 ft
- Code IATA : XOG


LFMO - Orange

DERNIER METAR :
  • 141030Z AUTO 35012KT CAVOK 14/01 Q1022 TEMPO 35015G25KT

METARs EXPIRÉS :
  • 141000Z AUTO 35013KT 320V020 CAVOK 13/00 Q1022 TEMPO 35015G25KT
  • 140930Z AUTO 34014KT 310V010 CAVOK 12/00 Q1022 TEMPO 35015G25KT
  • 140900Z AUTO 34014KT CAVOK 11/01 Q1022 TEMPO 35015G25KT
  • 140830Z AUTO 36014KT CAVOK 10/M00 Q1022 TEMPO 35015G25KT
  • 140800Z AUTO 35015KT 320V020 CAVOK 09/M00 Q1022 NOSIG

TAF TAF LFMO
Valide du 14 à 09h jusqu'au 15 à 09h UTC


140800Z 1409/1509 35015KT CAVOK TX17/1414Z TN04/1505Z
TEMPO 1409/1415 35015G25KT
BECMG 1415/1417 35015G25KT



MET'MAP, la Météo Aéronautique d'un coup d'oeil ! - Copyright ORBIFLY Décembre 2007 - Disclaimer

ORBIFLY MET'MAP TEAM :

Programmation & Développement : Alexandra Zaïnal
Sur une idée originale de : Baudouin d'Aumeries
Assistance à la programmation : Marc-Olivier Méhu
Soutien technique & logistique : Manuel Goepfert

Contact : metmap@orbifly.com




SOURCES & CREDITS :

   NOAA